createdAt,value
2022-10-19T00:01:02.787Z,0.70
2022-10-19T00:03:31.453Z,0.60
2022-10-19T00:05:59.877Z,0.50
2022-10-19T00:08:28.627Z,1.80
2022-10-19T00:10:58.563Z,2.23
2022-10-19T00:13:27.072Z,1.17
2022-10-19T00:15:55.635Z,1.23
2022-10-19T00:18:24.249Z,1.40
2022-10-19T00:20:52.778Z,0.33
2022-10-19T00:23:23.026Z,2.27
2022-10-19T00:25:59.375Z,0.33
2022-10-19T00:28:27.977Z,0.27
2022-10-19T00:30:56.588Z,0.27
2022-10-19T00:33:25.115Z,1.03
2022-10-19T00:35:54.469Z,0.60
2022-10-19T00:38:23.505Z,0.40
2022-10-19T00:40:51.913Z,0.30
2022-10-19T00:43:24.998Z,0.73
2022-10-19T00:45:53.918Z,1.57
2022-10-19T00:48:25.819Z,0.67
2022-10-19T00:50:56.290Z,2.20
2022-10-19T00:53:25.542Z,0.30
2022-10-19T00:55:54.161Z,0.53
2022-10-19T00:58:23.974Z,0.20
2022-10-19T01:00:52.727Z,0.70
2022-10-19T01:03:21.909Z,0.40
2022-10-19T01:05:51.174Z,0.30
2022-10-19T01:08:19.725Z,1.03
2022-10-19T01:10:53.552Z,0.37
2022-10-19T01:13:31.634Z,2.30
2022-10-19T01:16:04.047Z,0.37
2022-10-19T01:18:39.290Z,1.00
2022-10-19T01:21:17.446Z,2.37
2022-10-19T01:23:56.177Z,0.20
2022-10-19T01:26:34.919Z,0.23
2022-10-19T01:29:08.382Z,0.40
2022-10-19T01:31:40.383Z,0.30
2022-10-19T01:34:11.949Z,0.40
2022-10-19T01:36:44.097Z,0.77
2022-10-19T01:39:14.626Z,1.80
2022-10-19T01:41:48.233Z,0.47
2022-10-19T01:44:19.684Z,0.30
2022-10-19T01:46:54.713Z,0.13
2022-10-19T01:49:26.848Z,0.20
2022-10-19T01:54:34.201Z,0.70
2022-10-19T01:57:04.473Z,0.10
2022-10-19T01:59:34.681Z,0.83
2022-10-19T02:02:05.609Z,0.20
2022-10-19T02:04:35.486Z,0.23
2022-10-19T02:07:04.472Z,0.47
2022-10-19T02:09:33.378Z,0.20
2022-10-19T02:12:04.046Z,4.13
2022-10-19T02:14:35.010Z,3.00
2022-10-19T02:17:06.998Z,0.33
2022-10-19T02:19:35.892Z,1.07
2022-10-19T02:22:04.581Z,3.50
2022-10-19T02:24:33.251Z,0.90
2022-10-19T02:27:02.081Z,0.20
2022-10-19T02:29:30.534Z,1.70
2022-10-19T02:31:58.962Z,3.23
2022-10-19T02:34:29.193Z,2.53
2022-10-19T02:36:57.778Z,0.17
2022-10-19T02:39:26.398Z,0.20
2022-10-19T02:41:58.605Z,0.53
2022-10-19T02:44:29.049Z,1.67
2022-10-19T02:47:00.541Z,0.30
2022-10-19T02:49:31.030Z,0.10
2022-10-19T02:52:00.969Z,0.50
2022-10-19T02:54:29.916Z,5.30
2022-10-19T02:56:58.526Z,0.30
2022-10-19T02:59:27.306Z,0.40
2022-10-19T03:01:55.955Z,0.20
2022-10-19T03:04:24.394Z,0.10
2022-10-19T03:06:54.393Z,1.70
2022-10-19T03:09:23.117Z,0.30
2022-10-19T03:11:51.566Z,0.10
2022-10-19T03:14:20.019Z,1.50
2022-10-19T03:16:48.735Z,1.80
2022-10-19T03:19:17.170Z,0.27
2022-10-19T03:21:45.604Z,2.90
2022-10-19T03:24:15.590Z,0.20
2022-10-19T03:26:44.006Z,0.27
2022-10-19T03:29:12.446Z,0.20
2022-10-19T03:31:41.210Z,0.57
2022-10-19T03:34:09.620Z,0.33
2022-10-19T03:36:39.090Z,1.03
2022-10-19T03:39:09.099Z,0.20
2022-10-19T03:41:39.465Z,0.20
2022-10-19T03:44:08.451Z,0.20
2022-10-19T03:46:37.509Z,0.20
2022-10-19T03:49:06.369Z,0.50
2022-10-19T03:51:35.062Z,0.20
2022-10-19T03:54:04.393Z,0.20
2022-10-19T03:56:33.415Z,0.57
2022-10-19T03:59:04.374Z,0.10
2022-10-19T04:01:33.859Z,3.43
2022-10-19T04:04:03.080Z,0.20
2022-10-19T04:06:32.713Z,1.70
2022-10-19T04:09:01.593Z,0.20
2022-10-19T04:11:30.863Z,1.00
2022-10-19T04:13:59.748Z,1.40
2022-10-19T04:16:30.942Z,4.00
2022-10-19T04:18:59.917Z,2.67
2022-10-19T04:21:29.778Z,1.10
2022-10-19T04:24:00.309Z,2.83
2022-10-19T04:26:29.109Z,0.33
2022-10-19T04:28:59.188Z,2.40
2022-10-19T04:31:29.716Z,0.90
2022-10-19T04:33:58.623Z,1.00
2022-10-19T04:36:27.075Z,3.03
2022-10-19T04:38:55.649Z,1.70
2022-10-19T04:41:24.414Z,4.63
2022-10-19T04:43:57.682Z,23.40
2022-10-19T04:46:26.486Z,18.10
2022-10-19T04:48:56.953Z,14.93
2022-10-19T04:51:25.989Z,8.20
2022-10-19T04:53:59.324Z,12.87
2022-10-19T04:56:29.276Z,19.43
2022-10-19T04:58:58.430Z,22.80
2022-10-19T05:01:27.554Z,10.17
2022-10-19T05:03:57.951Z,11.90
2022-10-19T05:06:26.736Z,6.60
2022-10-19T05:08:55.201Z,2.03
2022-10-19T05:11:23.782Z,2.90
2022-10-19T05:13:52.368Z,1.73
2022-10-19T05:16:22.069Z,3.90
2022-10-19T05:18:51.065Z,2.90
2022-10-19T05:21:21.985Z,4.87
2022-10-19T05:23:53.095Z,13.70
2022-10-19T05:26:22.577Z,7.90
2022-10-19T05:28:51.382Z,2.33
2022-10-19T05:31:21.229Z,1.17
2022-10-19T05:33:49.858Z,0.67
2022-10-19T05:36:19.485Z,1.37
2022-10-19T05:38:49.967Z,2.87
2022-10-19T05:41:18.681Z,0.90
2022-10-19T05:43:47.495Z,0.40
2022-10-19T05:46:18.427Z,0.60
2022-10-19T05:48:47.465Z,0.60
2022-10-19T05:51:17.046Z,1.23
2022-10-19T05:53:45.594Z,3.87
2022-10-19T05:56:17.371Z,0.37
2022-10-19T05:58:45.869Z,5.13
2022-10-19T06:01:14.606Z,1.87
2022-10-19T06:03:43.172Z,0.83
2022-10-19T06:06:11.949Z,2.10
2022-10-19T06:08:41.044Z,2.30
2022-10-19T06:11:10.936Z,0.80
2022-10-19T06:13:41.541Z,0.80
2022-10-19T06:16:10.511Z,0.70
2022-10-19T06:18:39.513Z,2.03
2022-10-19T06:21:09.218Z,0.67
2022-10-19T06:23:38.012Z,2.47
2022-10-19T06:26:07.530Z,1.00
2022-10-19T06:28:36.418Z,2.13
2022-10-19T06:31:08.568Z,1.90
2022-10-19T06:33:38.554Z,0.90
2022-10-19T06:36:07.582Z,3.67
2022-10-19T06:38:36.070Z,0.80
2022-10-19T06:41:05.230Z,2.20
2022-10-19T06:43:34.094Z,0.97
2022-10-19T06:46:07.228Z,3.03
2022-10-19T06:48:35.816Z,0.70
2022-10-19T06:51:06.431Z,0.97
2022-10-19T06:53:35.281Z,0.90
2022-10-19T06:56:04.375Z,1.53
2022-10-19T06:58:33.070Z,1.40
2022-10-19T07:01:03.001Z,0.60
2022-10-19T07:03:33.037Z,3.47
2022-10-19T07:06:02.012Z,1.97
2022-10-19T07:08:31.438Z,0.87
2022-10-19T07:11:00.498Z,1.43
2022-10-19T07:13:29.486Z,0.90
2022-10-19T07:15:59.574Z,1.00
2022-10-19T07:18:28.279Z,4.00
2022-10-19T07:20:58.785Z,1.23
2022-10-19T07:23:27.925Z,1.07
2022-10-19T07:26:01.366Z,1.00
2022-10-19T07:28:30.297Z,1.00
2022-10-19T07:30:59.022Z,1.03
2022-10-19T07:33:27.597Z,0.70
2022-10-19T07:36:02.085Z,2.70
2022-10-19T07:38:32.024Z,1.33
2022-10-19T07:41:04.670Z,0.70
2022-10-19T07:43:33.271Z,0.77
2022-10-19T07:46:02.481Z,0.90
2022-10-19T07:48:31.266Z,1.43
2022-10-19T07:51:00.026Z,1.10
2022-10-19T07:53:29.857Z,2.63
2022-10-19T07:55:58.469Z,1.80
2022-10-19T07:58:27.027Z,1.57
2022-10-19T08:01:01.158Z,1.60
2022-10-19T08:06:19.218Z,6.73
2022-10-19T08:08:50.280Z,3.17
2022-10-19T08:11:19.992Z,1.20
2022-10-19T08:13:48.757Z,2.10
2022-10-19T08:16:24.606Z,0.83
2022-10-19T08:18:53.507Z,0.80
2022-10-19T08:21:21.958Z,1.23
2022-10-19T08:23:51.778Z,4.33
2022-10-19T08:26:20.527Z,1.47
2022-10-19T08:28:49.070Z,0.70
2022-10-19T08:31:19.137Z,3.57
2022-10-19T08:33:48.148Z,0.90
2022-10-19T08:36:16.617Z,1.60
2022-10-19T08:38:45.153Z,3.80
2022-10-19T08:41:26.653Z,0.90
2022-10-19T08:44:12.742Z,2.87
2022-10-19T08:46:44.722Z,2.70
2022-10-19T08:49:15.397Z,2.63
2022-10-19T08:51:45.489Z,3.60
2022-10-19T08:54:17.788Z,1.63
2022-10-19T08:56:51.995Z,1.37
2022-10-19T08:59:33.663Z,2.20
2022-10-19T09:02:04.703Z,0.50
2022-10-19T09:04:34.885Z,0.80
2022-10-19T09:07:20.533Z,1.70
2022-10-19T09:09:51.620Z,0.47
2022-10-19T09:12:23.437Z,1.70
2022-10-19T09:14:55.425Z,0.30
2022-10-19T09:17:25.366Z,0.20
2022-10-19T09:19:53.980Z,0.20
2022-10-19T09:22:25.093Z,0.60
2022-10-19T09:24:54.739Z,1.07
2022-10-19T09:27:25.634Z,1.40
2022-10-19T09:29:56.312Z,2.63
2022-10-19T09:32:26.864Z,0.97
2022-10-19T09:34:56.537Z,0.20
2022-10-19T09:37:26.733Z,1.07
2022-10-19T09:39:56.263Z,2.63
2022-10-19T09:42:29.538Z,0.57
2022-10-19T09:44:58.779Z,0.20
2022-10-19T09:47:35.724Z,1.27
2022-10-19T09:50:10.131Z,0.40
2022-10-19T09:52:40.439Z,2.07
2022-10-19T09:55:17.914Z,0.40
2022-10-19T09:57:48.626Z,0.50
2022-10-19T10:00:19.546Z,0.90
2022-10-19T10:02:51.480Z,0.57
2022-10-19T10:05:20.282Z,1.23
2022-10-19T10:07:49.446Z,2.63
2022-10-19T10:10:24.557Z,0.50
2022-10-19T10:12:56.741Z,0.57
2022-10-19T10:15:27.019Z,0.20
2022-10-19T10:17:57.413Z,0.30
2022-10-19T10:20:29.019Z,0.30
2022-10-19T10:22:58.690Z,0.30
2022-10-19T10:25:28.804Z,0.83
2022-10-19T10:28:00.710Z,1.07
2022-10-19T10:30:30.937Z,0.40
2022-10-19T10:33:08.195Z,0.77
2022-10-19T10:35:53.783Z,0.77
2022-10-19T10:38:24.387Z,1.60
2022-10-19T10:40:53.717Z,0.63
2022-10-19T10:43:26.419Z,1.00
2022-10-19T10:45:55.949Z,0.53
2022-10-19T10:48:29.346Z,0.50
2022-10-19T10:50:58.152Z,1.83
2022-10-19T10:53:39.934Z,0.60
2022-10-19T10:56:21.233Z,0.50
2022-10-19T10:58:53.066Z,1.07
2022-10-19T11:01:22.304Z,0.43
2022-10-19T11:03:54.873Z,0.80
2022-10-19T11:09:03.020Z,1.30
2022-10-19T11:11:34.393Z,0.30
2022-10-19T11:14:11.355Z,0.97
2022-10-19T11:16:42.203Z,0.67
2022-10-19T11:21:45.106Z,0.47
2022-10-19T11:24:18.566Z,0.80
2022-10-19T11:26:57.668Z,0.90
2022-10-19T11:29:32.374Z,0.80
2022-10-19T11:32:01.188Z,1.47
2022-10-19T11:34:40.597Z,0.47
2022-10-19T11:37:16.678Z,1.90
2022-10-19T11:39:52.047Z,0.27
2022-10-19T11:42:25.006Z,0.10
2022-10-19T11:45:01.740Z,0.37
2022-10-19T11:47:50.949Z,0.40
2022-10-19T11:50:27.159Z,0.20
2022-10-19T11:53:01.779Z,0.17
2022-10-19T11:55:34.729Z,0.40
2022-10-19T11:58:10.825Z,2.30
2022-10-19T12:00:46.451Z,0.10
2022-10-19T12:03:28.394Z,0.37
2022-10-19T12:06:03.082Z,0.10
2022-10-19T12:08:39.745Z,1.20
2022-10-19T12:11:13.195Z,0.23
2022-10-19T12:13:42.553Z,0.10
2022-10-19T12:16:13.557Z,0.20
2022-10-19T12:18:44.029Z,1.60
2022-10-19T12:21:16.097Z,0.20
2022-10-19T12:23:46.926Z,1.10
2022-10-19T12:28:52.554Z,0.20
2022-10-19T12:31:23.609Z,0.20
2022-10-19T12:33:57.315Z,0.40
2022-10-19T12:36:28.733Z,0.40
2022-10-19T12:39:02.069Z,0.37
2022-10-19T12:41:34.216Z,0.50
2022-10-19T12:44:08.378Z,0.43
2022-10-19T12:46:41.918Z,0.30
2022-10-19T12:49:29.174Z,0.13
2022-10-19T12:51:58.372Z,0.20
2022-10-19T12:54:27.914Z,0.10
2022-10-19T12:56:57.650Z,0.20
2022-10-19T12:59:27.798Z,0.87
2022-10-19T13:01:57.777Z,0.83
2022-10-19T13:04:27.444Z,0.33
2022-10-19T13:07:01.540Z,1.43
2022-10-19T13:09:32.354Z,0.73
2022-10-19T13:12:21.974Z,1.33
2022-10-19T13:14:53.058Z,0.10
2022-10-19T13:17:36.888Z,0.40
2022-10-19T13:20:25.169Z,0.30
2022-10-19T13:23:14.997Z,0.30
2022-10-19T13:25:45.471Z,0.13
2022-10-19T13:28:32.580Z,0.47
2022-10-19T13:31:06.117Z,0.13
2022-10-19T13:33:51.580Z,0.20
2022-10-19T13:36:20.649Z,0.83
2022-10-19T13:38:50.198Z,0.20
2022-10-19T13:41:22.018Z,0.10
2022-10-19T13:43:57.314Z,0.87
2022-10-19T13:46:34.216Z,0.30
2022-10-19T13:49:19.303Z,1.23
2022-10-19T13:51:52.654Z,0.87
2022-10-19T13:54:29.951Z,0.10
2022-10-19T13:57:08.431Z,0.33
2022-10-19T13:59:54.854Z,0.10
2022-10-19T14:02:43.983Z,0.20
2022-10-19T14:05:18.555Z,0.30
2022-10-19T14:07:51.978Z,0.10
2022-10-19T14:10:25.142Z,0.87
2022-10-19T14:13:03.808Z,0.20
2022-10-19T14:15:33.589Z,1.90
2022-10-19T14:18:05.085Z,0.00
2022-10-19T14:20:35.836Z,0.30
2022-10-19T14:23:19.444Z,0.20
2022-10-19T14:25:52.499Z,0.60
2022-10-19T14:28:23.172Z,0.27
2022-10-19T14:30:57.002Z,0.23
2022-10-19T14:33:26.128Z,1.10
2022-10-19T14:35:55.214Z,0.40
2022-10-19T14:38:27.918Z,0.07
2022-10-19T14:40:56.962Z,0.20
2022-10-19T14:43:27.680Z,0.37
2022-10-19T14:46:06.206Z,0.17
2022-10-19T14:48:35.120Z,0.50
2022-10-19T14:51:04.249Z,0.20
2022-10-19T14:53:36.106Z,0.30
2022-10-19T14:56:08.055Z,0.20
2022-10-19T14:58:40.434Z,1.10
2022-10-19T15:01:09.397Z,0.20
2022-10-19T15:03:40.273Z,0.30
2022-10-19T15:06:18.032Z,0.40
2022-10-19T15:08:49.557Z,0.30
2022-10-19T15:11:23.901Z,0.63
2022-10-19T15:13:57.070Z,0.30
2022-10-19T15:16:32.634Z,0.50
2022-10-19T15:19:05.070Z,0.20
2022-10-19T15:21:34.130Z,0.77
2022-10-19T15:24:09.901Z,1.30
2022-10-19T15:26:38.453Z,1.10
2022-10-19T15:29:12.991Z,0.20
2022-10-19T15:31:41.521Z,0.20
2022-10-19T15:34:22.406Z,0.30
2022-10-19T15:36:57.642Z,0.60
2022-10-19T15:39:37.751Z,0.13
2022-10-19T15:42:33.884Z,0.40
2022-10-19T15:45:04.120Z,0.30
2022-10-19T15:47:32.793Z,1.37
2022-10-19T15:50:02.525Z,0.40
2022-10-19T15:52:31.543Z,0.47
2022-10-19T15:55:00.821Z,0.40
2022-10-19T15:57:31.381Z,0.37
2022-10-19T16:00:01.524Z,0.50
2022-10-19T16:02:31.526Z,0.57
2022-10-19T16:05:00.070Z,0.37
2022-10-19T16:07:29.755Z,0.30
2022-10-19T16:09:58.787Z,1.10
2022-10-19T16:12:27.920Z,1.17
2022-10-19T16:14:56.370Z,0.27
2022-10-19T16:17:25.004Z,1.40
2022-10-19T16:19:54.898Z,0.20
2022-10-19T16:22:23.385Z,2.43
2022-10-19T16:24:51.927Z,2.40
2022-10-19T16:27:20.477Z,0.43
2022-10-19T16:29:48.910Z,0.20
2022-10-19T16:32:17.406Z,0.40
2022-10-19T16:34:45.967Z,0.20
2022-10-19T16:37:15.803Z,0.30
2022-10-19T16:39:44.319Z,1.00
2022-10-19T16:42:12.834Z,0.30
2022-10-19T16:44:41.261Z,0.27
2022-10-19T16:47:09.753Z,1.00
2022-10-19T16:49:38.291Z,0.40
2022-10-19T16:52:06.734Z,0.40
2022-10-19T16:54:36.634Z,0.40
2022-10-19T16:57:09.580Z,0.30
2022-10-19T16:59:38.597Z,2.63
2022-10-19T17:02:07.211Z,0.37
2022-10-19T17:04:35.653Z,0.67
2022-10-19T17:07:04.110Z,0.87
2022-10-19T17:09:52.286Z,0.67
2022-10-19T17:12:22.638Z,0.53
2022-10-19T17:14:51.435Z,0.40
2022-10-19T17:17:20.482Z,0.27
2022-10-19T17:19:49.329Z,0.27
2022-10-19T17:22:18.017Z,4.17
2022-10-19T17:24:47.463Z,0.20
2022-10-19T17:27:15.951Z,2.63
2022-10-19T17:29:46.165Z,0.93
2022-10-19T17:32:14.778Z,0.40
2022-10-19T17:34:43.265Z,0.80
2022-10-19T17:37:11.796Z,2.30
2022-10-19T17:39:40.309Z,2.73
2022-10-19T17:42:08.778Z,8.97
2022-10-19T17:44:37.340Z,8.63
2022-10-19T17:47:07.331Z,4.57
2022-10-19T17:49:35.749Z,3.30
2022-10-19T17:52:04.309Z,1.83
2022-10-19T17:54:43.369Z,2.57
2022-10-19T17:57:21.417Z,2.93
2022-10-19T17:59:52.984Z,6.30
2022-10-19T18:02:23.151Z,3.70
2022-10-19T18:04:51.701Z,5.03
2022-10-19T18:07:22.001Z,2.77
2022-10-19T18:09:50.606Z,0.57
2022-10-19T18:12:19.121Z,0.67
2022-10-19T18:14:47.536Z,0.97
2022-10-19T18:17:16.089Z,1.27
2022-10-19T18:19:46.055Z,0.20
2022-10-19T18:22:14.479Z,0.20
2022-10-19T18:24:43.026Z,2.00
2022-10-19T18:27:12.793Z,0.33
2022-10-19T18:29:41.244Z,3.10
2022-10-19T18:32:09.839Z,0.60
2022-10-19T18:34:40.618Z,1.70
2022-10-19T18:37:10.727Z,3.57
2022-10-19T18:39:39.329Z,0.50
2022-10-19T18:42:07.858Z,0.40
2022-10-19T18:44:36.359Z,0.73
2022-10-19T18:47:04.791Z,0.40
2022-10-19T18:49:33.423Z,0.30
2022-10-19T18:52:01.986Z,3.80
2022-10-19T18:54:31.787Z,0.97
2022-10-19T18:57:00.362Z,0.30
2022-10-19T18:59:28.963Z,0.20
2022-10-19T19:01:57.472Z,3.40
2022-10-19T19:04:26.045Z,0.77
2022-10-19T19:06:54.622Z,0.43
2022-10-19T19:09:23.128Z,0.40
2022-10-19T19:11:54.351Z,0.60
2022-10-19T19:14:22.939Z,0.63
2022-10-19T19:16:51.399Z,2.30
2022-10-19T19:19:20.496Z,0.60
2022-10-19T19:21:50.027Z,1.37
2022-10-19T19:24:19.546Z,2.08
2022-10-19T19:26:50.147Z,0.93
2022-10-19T19:29:20.667Z,0.87
2022-10-19T19:31:49.333Z,4.10
2022-10-19T19:34:17.786Z,1.07
2022-10-19T19:36:48.617Z,1.83
2022-10-19T19:39:18.719Z,0.67
2022-10-19T19:41:47.276Z,0.60
2022-10-19T19:44:15.870Z,0.70
2022-10-19T19:46:45.909Z,0.97
2022-10-19T19:49:14.356Z,1.93
2022-10-19T19:51:42.958Z,0.50
2022-10-19T19:54:12.327Z,4.57
2022-10-19T19:56:42.352Z,1.30
2022-10-19T19:59:12.130Z,0.87
2022-10-19T20:01:40.981Z,2.80
2022-10-19T20:04:11.283Z,2.40
2022-10-19T20:06:40.410Z,1.03
2022-10-19T20:09:10.796Z,0.77
2022-10-19T20:11:42.706Z,0.73
2022-10-19T20:14:11.775Z,1.80
2022-10-19T20:16:40.458Z,0.93
2022-10-19T20:19:10.010Z,3.33
2022-10-19T20:21:40.051Z,3.87
2022-10-19T20:24:08.970Z,1.10
2022-10-19T20:26:37.502Z,1.10
2022-10-19T20:29:06.585Z,2.77
2022-10-19T20:31:39.577Z,4.00
2022-10-19T20:34:14.054Z,2.00
2022-10-19T20:36:44.128Z,1.60
2022-10-19T20:39:12.677Z,2.00
2022-10-19T20:41:41.294Z,2.03
2022-10-19T20:44:09.718Z,0.90
2022-10-19T20:46:38.587Z,2.13
2022-10-19T20:49:07.609Z,2.20
2022-10-19T20:51:37.249Z,1.17
2022-10-19T20:54:08.440Z,2.87
2022-10-19T20:56:38.131Z,3.03
2022-10-19T20:59:07.466Z,1.10
2022-10-19T21:01:37.299Z,1.33
2022-10-19T21:04:07.113Z,1.50
2022-10-19T21:06:36.329Z,0.83
2022-10-19T21:09:05.118Z,1.00
2022-10-19T21:11:35.613Z,1.23
2022-10-19T21:14:05.011Z,1.03
2022-10-19T21:16:35.407Z,1.07
2022-10-19T21:19:04.544Z,0.93
2022-10-19T21:21:33.834Z,2.17
2022-10-19T21:24:04.640Z,3.60
2022-10-19T21:26:33.958Z,0.80
2022-10-19T21:29:04.109Z,0.70
2022-10-19T21:31:32.706Z,0.67
2022-10-19T21:34:01.202Z,0.93
2022-10-19T21:36:29.660Z,0.97
2022-10-19T21:38:58.159Z,1.53
2022-10-19T21:41:26.754Z,2.00
2022-10-19T21:43:55.493Z,0.70
2022-10-19T21:46:26.035Z,0.80
2022-10-19T21:48:54.965Z,0.60
2022-10-19T21:51:25.665Z,0.67
2022-10-19T21:53:54.214Z,0.70
2022-10-19T21:56:22.748Z,1.73
2022-10-19T21:58:52.366Z,1.67
2022-10-19T22:01:22.176Z,0.70
2022-10-19T22:03:52.153Z,0.87
2022-10-19T22:06:20.589Z,0.80
2022-10-19T22:08:49.388Z,0.60
2022-10-19T22:11:17.958Z,1.90
2022-10-19T22:13:46.525Z,3.80
2022-10-19T22:16:16.765Z,2.53
2022-10-19T22:18:45.566Z,1.00
2022-10-19T22:21:16.637Z,2.90
2022-10-19T22:23:46.139Z,1.60
2022-10-19T22:26:15.251Z,1.13
2022-10-19T22:28:44.266Z,1.40
2022-10-19T22:31:13.537Z,2.87
2022-10-19T22:33:42.316Z,0.93
2022-10-19T22:36:11.612Z,1.03
2022-10-19T22:38:41.842Z,2.30
2022-10-19T22:41:46.234Z,1.17
2022-10-19T22:44:14.880Z,0.87
2022-10-19T22:46:43.345Z,1.50
2022-10-19T22:49:11.810Z,3.10
2022-10-19T22:51:40.542Z,1.43
2022-10-19T22:54:10.438Z,1.20
2022-10-19T22:56:38.939Z,1.63
2022-10-19T22:59:08.765Z,1.60
2022-10-19T23:01:37.561Z,1.77
2022-10-19T23:04:06.310Z,1.30
2022-10-19T23:06:34.921Z,2.60
2022-10-19T23:09:03.457Z,2.90
2022-10-19T23:11:33.365Z,1.90
2022-10-19T23:14:02.128Z,1.93
2022-10-19T23:16:30.634Z,2.97
2022-10-19T23:18:59.111Z,1.50
2022-10-19T23:21:27.871Z,1.50
2022-10-19T23:23:56.342Z,2.40
2022-10-19T23:26:24.996Z,1.40
2022-10-19T23:28:55.091Z,4.43
2022-10-19T23:31:24.899Z,2.30
2022-10-19T23:33:53.499Z,1.60
2022-10-19T23:36:23.131Z,1.93
2022-10-19T23:38:52.269Z,1.60
2022-10-19T23:41:21.254Z,1.90
2022-10-19T23:43:49.996Z,2.33
2022-10-19T23:46:19.838Z,1.57
2022-10-19T23:48:48.359Z,3.00
2022-10-19T23:51:18.098Z,1.47
2022-10-19T23:53:47.243Z,1.50
2022-10-19T23:56:16.733Z,1.97
2022-10-19T23:58:45.533Z,1.50
